Terminal Aerodrome Forecast
Issued by NWS

Home | Current Version | Previous Version | Text Only | Print | Product List | Glossary On
Versions: 1 2 3 4 5 6 7 8 9 10 11 12 13 14 15 16 17 18 19 20 21 22 23 24 25 26
000
FTUS45 KGJT 252326
TAFEGE
TAF
KEGE 252326Z 2600/2624 00000KT P6SM SCT120
     FM260200 11003KT P6SM SKC
     FM261200 00000KT P6SM SKC
     FM261800 VRB04KT P6SM SCT250
      AMD LTD TO CLD VIS AND WIND 2606/2614=

USA.gov is the U.S. government's official web portal to all federal, state and local government web resources and services.